sensor_id;sensor_type;location;lat;lon;timestamp;P1;durP1;ratioP1;P2;durP2;ratioP2
6448;SDS011;3257;52.298;13.690;2022-10-16T00:00:40;0.00;;;0.00;;
6448;SDS011;3257;52.298;13.690;2022-10-16T00:03:08;0.00;;;0.00;;
6448;SDS011;3257;52.298;13.690;2022-10-16T00:05:42;0.00;;;0.00;;
6448;SDS011;3257;52.298;13.690;2022-10-16T00:08:11;0.00;;;0.00;;
6448;SDS011;3257;52.298;13.690;2022-10-16T00:10:39;0.00;;;0.00;;
6448;SDS011;3257;52.298;13.690;2022-10-16T00:13:05;0.00;;;0.00;;
6448;SDS011;3257;52.298;13.690;2022-10-16T00:15:34;0.00;;;0.00;;
6448;SDS011;3257;52.298;13.690;2022-10-16T00:18:03;0.00;;;0.00;;
6448;SDS011;3257;52.298;13.690;2022-10-16T00:20:33;0.00;;;0.00;;
6448;SDS011;3257;52.298;13.690;2022-10-16T00:23:00;0.00;;;0.00;;
6448;SDS011;3257;52.298;13.690;2022-10-16T00:25:26;0.00;;;0.00;;
6448;SDS011;3257;52.298;13.690;2022-10-16T00:27:53;0.00;;;0.00;;
6448;SDS011;3257;52.298;13.690;2022-10-16T00:30:20;0.00;;;0.00;;
6448;SDS011;3257;52.298;13.690;2022-10-16T00:32:46;0.00;;;0.00;;
6448;SDS011;3257;52.298;13.690;2022-10-16T00:35:13;0.00;;;0.00;;
6448;SDS011;3257;52.298;13.690;2022-10-16T00:37:39;0.00;;;0.00;;
6448;SDS011;3257;52.298;13.690;2022-10-16T00:40:06;0.00;;;0.00;;
6448;SDS011;3257;52.298;13.690;2022-10-16T00:42:33;0.00;;;0.00;;
6448;SDS011;3257;52.298;13.690;2022-10-16T00:44:59;0.00;;;0.00;;
6448;SDS011;3257;52.298;13.690;2022-10-16T00:47:30;0.00;;;0.00;;
6448;SDS011;3257;52.298;13.690;2022-10-16T00:50:08;0.00;;;0.00;;
6448;SDS011;3257;52.298;13.690;2022-10-16T00:52:41;0.00;;;0.00;;
6448;SDS011;3257;52.298;13.690;2022-10-16T00:55:10;0.00;;;0.00;;
6448;SDS011;3257;52.298;13.690;2022-10-16T00:57:37;0.00;;;0.00;;
6448;SDS011;3257;52.298;13.690;2022-10-16T01:00:06;0.00;;;0.00;;
6448;SDS011;3257;52.298;13.690;2022-10-16T01:02:34;0.00;;;0.00;;
6448;SDS011;3257;52.298;13.690;2022-10-16T01:05:01;0.00;;;0.00;;
6448;SDS011;3257;52.298;13.690;2022-10-16T01:13:14;0.00;;;0.00;;
6448;SDS011;3257;52.298;13.690;2022-10-16T01:15:52;0.00;;;0.00;;
6448;SDS011;3257;52.298;13.690;2022-10-16T01:18:28;0.00;;;0.00;;
6448;SDS011;3257;52.298;13.690;2022-10-16T01:21:10;0.00;;;0.00;;
6448;SDS011;3257;52.298;13.690;2022-10-16T01:35:09;0.00;;;0.00;;
6448;SDS011;3257;52.298;13.690;2022-10-16T01:37:37;0.00;;;0.00;;
6448;SDS011;3257;52.298;13.690;2022-10-16T01:40:09;0.00;;;0.00;;
6448;SDS011;3257;52.298;13.690;2022-10-16T01:42:40;0.00;;;0.00;;
6448;SDS011;3257;52.298;13.690;2022-10-16T01:45:11;0.00;;;0.00;;
6448;SDS011;3257;52.298;13.690;2022-10-16T01:47:41;0.00;;;0.00;;
6448;SDS011;3257;52.298;13.690;2022-10-16T01:50:09;0.00;;;0.00;;
6448;SDS011;3257;52.298;13.690;2022-10-16T01:52:39;0.00;;;0.00;;
6448;SDS011;3257;52.298;13.690;2022-10-16T01:55:08;0.00;;;0.00;;
6448;SDS011;3257;52.298;13.690;2022-10-16T01:57:37;0.00;;;0.00;;
6448;SDS011;3257;52.298;13.690;2022-10-16T02:00:07;0.00;;;0.00;;
6448;SDS011;3257;52.298;13.690;2022-10-16T02:02:37;0.00;;;0.00;;
6448;SDS011;3257;52.298;13.690;2022-10-16T02:05:12;0.00;;;0.00;;
6448;SDS011;3257;52.298;13.690;2022-10-16T02:07:43;0.00;;;0.00;;
6448;SDS011;3257;52.298;13.690;2022-10-16T02:10:09;0.00;;;0.00;;
6448;SDS011;3257;52.298;13.690;2022-10-16T02:12:37;0.00;;;0.00;;
6448;SDS011;3257;52.298;13.690;2022-10-16T02:15:08;0.00;;;0.00;;
6448;SDS011;3257;52.298;13.690;2022-10-16T02:17:35;0.00;;;0.00;;
6448;SDS011;3257;52.298;13.690;2022-10-16T02:20:02;0.00;;;0.00;;
6448;SDS011;3257;52.298;13.690;2022-10-16T02:22:34;0.00;;;0.00;;
6448;SDS011;3257;52.298;13.690;2022-10-16T02:27:45;0.00;;;0.00;;
6448;SDS011;3257;52.298;13.690;2022-10-16T02:30:42;0.00;;;0.00;;
6448;SDS011;3257;52.298;13.690;2022-10-16T02:33:10;0.00;;;0.00;;
6448;SDS011;3257;52.298;13.690;2022-10-16T02:35:40;0.00;;;0.00;;
6448;SDS011;3257;52.298;13.690;2022-10-16T02:38:09;0.00;;;0.00;;
6448;SDS011;3257;52.298;13.690;2022-10-16T02:40:37;0.00;;;0.00;;
6448;SDS011;3257;52.298;13.690;2022-10-16T02:43:04;0.00;;;0.00;;
6448;SDS011;3257;52.298;13.690;2022-10-16T02:45:31;0.00;;;0.00;;
6448;SDS011;3257;52.298;13.690;2022-10-16T02:47:58;0.00;;;0.00;;
6448;SDS011;3257;52.298;13.690;2022-10-16T02:50:24;0.00;;;0.00;;
6448;SDS011;3257;52.298;13.690;2022-10-16T02:52:51;0.00;;;0.00;;
6448;SDS011;3257;52.298;13.690;2022-10-16T02:55:17;0.00;;;0.00;;
6448;SDS011;3257;52.298;13.690;2022-10-16T02:57:44;0.00;;;0.00;;
6448;SDS011;3257;52.298;13.690;2022-10-16T03:00:11;0.00;;;0.00;;
6448;SDS011;3257;52.298;13.690;2022-10-16T03:02:40;0.00;;;0.00;;
6448;SDS011;3257;52.298;13.690;2022-10-16T03:05:06;0.00;;;0.00;;
6448;SDS011;3257;52.298;13.690;2022-10-16T03:07:33;0.00;;;0.00;;
6448;SDS011;3257;52.298;13.690;2022-10-16T03:10:00;0.00;;;0.00;;
6448;SDS011;3257;52.298;13.690;2022-10-16T03:12:27;0.00;;;0.00;;
6448;SDS011;3257;52.298;13.690;2022-10-16T03:14:55;0.00;;;0.00;;
6448;SDS011;3257;52.298;13.690;2022-10-16T03:17:23;0.00;;;0.00;;
6448;SDS011;3257;52.298;13.690;2022-10-16T03:19:50;0.00;;;0.00;;
6448;SDS011;3257;52.298;13.690;2022-10-16T03:22:16;0.00;;;0.00;;
6448;SDS011;3257;52.298;13.690;2022-10-16T03:24:43;0.00;;;0.00;;
6448;SDS011;3257;52.298;13.690;2022-10-16T03:27:09;0.00;;;0.00;;
6448;SDS011;3257;52.298;13.690;2022-10-16T03:29:36;0.00;;;0.00;;
6448;SDS011;3257;52.298;13.690;2022-10-16T03:32:02;0.00;;;0.00;;
6448;SDS011;3257;52.298;13.690;2022-10-16T03:34:29;0.00;;;0.00;;
6448;SDS011;3257;52.298;13.690;2022-10-16T03:36:56;0.00;;;0.00;;
6448;SDS011;3257;52.298;13.690;2022-10-16T03:39:22;0.00;;;0.00;;
6448;SDS011;3257;52.298;13.690;2022-10-16T03:41:49;0.00;;;0.00;;
6448;SDS011;3257;52.298;13.690;2022-10-16T03:44:15;0.00;;;0.00;;
6448;SDS011;3257;52.298;13.690;2022-10-16T03:46:42;0.00;;;0.00;;
6448;SDS011;3257;52.298;13.690;2022-10-16T03:49:08;0.00;;;0.00;;
6448;SDS011;3257;52.298;13.690;2022-10-16T03:51:35;0.00;;;0.00;;
6448;SDS011;3257;52.298;13.690;2022-10-16T03:54:02;0.00;;;0.00;;
6448;SDS011;3257;52.298;13.690;2022-10-16T03:56:28;0.00;;;0.00;;
6448;SDS011;3257;52.298;13.690;2022-10-16T03:58:55;0.00;;;0.00;;
6448;SDS011;3257;52.298;13.690;2022-10-16T04:01:21;0.00;;;0.00;;
6448;SDS011;3257;52.298;13.690;2022-10-16T04:03:48;0.00;;;0.00;;
6448;SDS011;3257;52.298;13.690;2022-10-16T04:06:14;0.00;;;0.00;;
6448;SDS011;3257;52.298;13.690;2022-10-16T04:08:44;0.00;;;0.00;;
6448;SDS011;3257;52.298;13.690;2022-10-16T04:11:10;0.00;;;0.00;;
6448;SDS011;3257;52.298;13.690;2022-10-16T04:13:37;0.00;;;0.00;;
6448;SDS011;3257;52.298;13.690;2022-10-16T04:16:04;0.00;;;0.00;;
6448;SDS011;3257;52.298;13.690;2022-10-16T04:18:30;0.00;;;0.00;;
6448;SDS011;3257;52.298;13.690;2022-10-16T04:21:01;0.00;;;0.00;;
6448;SDS011;3257;52.298;13.690;2022-10-16T04:23:29;0.00;;;0.00;;
6448;SDS011;3257;52.298;13.690;2022-10-16T04:25:55;0.00;;;0.00;;
6448;SDS011;3257;52.298;13.690;2022-10-16T04:28:22;0.00;;;0.00;;
6448;SDS011;3257;52.298;13.690;2022-10-16T04:30:48;0.00;;;0.00;;
6448;SDS011;3257;52.298;13.690;2022-10-16T04:33:15;0.00;;;0.00;;
6448;SDS011;3257;52.298;13.690;2022-10-16T04:35:41;0.00;;;0.00;;
6448;SDS011;3257;52.298;13.690;2022-10-16T04:38:08;0.00;;;0.00;;
6448;SDS011;3257;52.298;13.690;2022-10-16T04:40:35;0.00;;;0.00;;
6448;SDS011;3257;52.298;13.690;2022-10-16T04:43:04;0.00;;;0.00;;
6448;SDS011;3257;52.298;13.690;2022-10-16T04:45:31;0.00;;;0.00;;
6448;SDS011;3257;52.298;13.690;2022-10-16T04:47:58;0.00;;;0.00;;
6448;SDS011;3257;52.298;13.690;2022-10-16T04:50:25;0.00;;;0.00;;
6448;SDS011;3257;52.298;13.690;2022-10-16T04:52:52;0.00;;;0.00;;
6448;SDS011;3257;52.298;13.690;2022-10-16T04:55:18;0.00;;;0.00;;
6448;SDS011;3257;52.298;13.690;2022-10-16T04:57:45;0.00;;;0.00;;
6448;SDS011;3257;52.298;13.690;2022-10-16T05:00:12;0.00;;;0.00;;
6448;SDS011;3257;52.298;13.690;2022-10-16T05:02:38;0.00;;;0.00;;
6448;SDS011;3257;52.298;13.690;2022-10-16T05:05:05;0.00;;;0.00;;
6448;SDS011;3257;52.298;13.690;2022-10-16T05:07:32;0.00;;;0.00;;
6448;SDS011;3257;52.298;13.690;2022-10-16T05:09:58;0.00;;;0.00;;
6448;SDS011;3257;52.298;13.690;2022-10-16T05:12:25;0.00;;;0.00;;
6448;SDS011;3257;52.298;13.690;2022-10-16T05:14:51;0.00;;;0.00;;
6448;SDS011;3257;52.298;13.690;2022-10-16T05:17:18;0.00;;;0.00;;
6448;SDS011;3257;52.298;13.690;2022-10-16T05:19:44;0.00;;;0.00;;
6448;SDS011;3257;52.298;13.690;2022-10-16T05:22:11;0.00;;;0.00;;
6448;SDS011;3257;52.298;13.690;2022-10-16T05:24:37;0.00;;;0.00;;
6448;SDS011;3257;52.298;13.690;2022-10-16T05:27:04;0.00;;;0.00;;
6448;SDS011;3257;52.298;13.690;2022-10-16T05:29:30;0.00;;;0.00;;
6448;SDS011;3257;52.298;13.690;2022-10-16T05:31:56;0.00;;;0.00;;
6448;SDS011;3257;52.298;13.690;2022-10-16T05:34:23;0.00;;;0.00;;
6448;SDS011;3257;52.298;13.690;2022-10-16T05:36:50;0.00;;;0.00;;
6448;SDS011;3257;52.298;13.690;2022-10-16T05:39:17;0.00;;;0.00;;
6448;SDS011;3257;52.298;13.690;2022-10-16T05:41:43;0.00;;;0.00;;
6448;SDS011;3257;52.298;13.690;2022-10-16T05:44:10;0.00;;;0.00;;
6448;SDS011;3257;52.298;13.690;2022-10-16T05:46:37;0.00;;;0.00;;
6448;SDS011;3257;52.298;13.690;2022-10-16T05:49:03;0.00;;;0.00;;
6448;SDS011;3257;52.298;13.690;2022-10-16T05:51:30;0.00;;;0.00;;
6448;SDS011;3257;52.298;13.690;2022-10-16T05:53:56;0.00;;;0.00;;
6448;SDS011;3257;52.298;13.690;2022-10-16T05:56:23;0.00;;;0.00;;
6448;SDS011;3257;52.298;13.690;2022-10-16T05:58:49;0.00;;;0.00;;
6448;SDS011;3257;52.298;13.690;2022-10-16T06:01:17;0.00;;;0.00;;
6448;SDS011;3257;52.298;13.690;2022-10-16T06:03:45;0.00;;;0.00;;
6448;SDS011;3257;52.298;13.690;2022-10-16T06:06:15;0.00;;;0.00;;
6448;SDS011;3257;52.298;13.690;2022-10-16T06:08:44;0.00;;;0.00;;
6448;SDS011;3257;52.298;13.690;2022-10-16T06:11:15;0.00;;;0.00;;
6448;SDS011;3257;52.298;13.690;2022-10-16T06:13:44;0.00;;;0.00;;
6448;SDS011;3257;52.298;13.690;2022-10-16T06:16:12;0.00;;;0.00;;
6448;SDS011;3257;52.298;13.690;2022-10-16T06:18:39;0.00;;;0.00;;
6448;SDS011;3257;52.298;13.690;2022-10-16T06:21:09;0.00;;;0.00;;
6448;SDS011;3257;52.298;13.690;2022-10-16T06:23:43;0.00;;;0.00;;
6448;SDS011;3257;52.298;13.690;2022-10-16T06:26:12;0.00;;;0.00;;
6448;SDS011;3257;52.298;13.690;2022-10-16T06:28:41;0.00;;;0.00;;
6448;SDS011;3257;52.298;13.690;2022-10-16T06:31:08;0.00;;;0.00;;
6448;SDS011;3257;52.298;13.690;2022-10-16T06:33:36;0.00;;;0.00;;
6448;SDS011;3257;52.298;13.690;2022-10-16T06:36:04;0.00;;;0.00;;
6448;SDS011;3257;52.298;13.690;2022-10-16T06:38:32;0.00;;;0.00;;
6448;SDS011;3257;52.298;13.690;2022-10-16T06:40:59;0.00;;;0.00;;
6448;SDS011;3257;52.298;13.690;2022-10-16T06:43:26;0.00;;;0.00;;
6448;SDS011;3257;52.298;13.690;2022-10-16T06:45:59;0.00;;;0.00;;
6448;SDS011;3257;52.298;13.690;2022-10-16T06:48:26;0.00;;;0.00;;
6448;SDS011;3257;52.298;13.690;2022-10-16T06:50:57;0.00;;;0.00;;
6448;SDS011;3257;52.298;13.690;2022-10-16T06:53:26;0.00;;;0.00;;
6448;SDS011;3257;52.298;13.690;2022-10-16T06:55:54;0.00;;;0.00;;
6448;SDS011;3257;52.298;13.690;2022-10-16T06:58:21;0.00;;;0.00;;
6448;SDS011;3257;52.298;13.690;2022-10-16T07:00:48;0.00;;;0.00;;
6448;SDS011;3257;52.298;13.690;2022-10-16T07:03:15;0.00;;;0.00;;
6448;SDS011;3257;52.298;13.690;2022-10-16T07:05:42;0.00;;;0.00;;
6448;SDS011;3257;52.298;13.690;2022-10-16T07:08:09;0.00;;;0.00;;
6448;SDS011;3257;52.298;13.690;2022-10-16T07:10:35;0.00;;;0.00;;
6448;SDS011;3257;52.298;13.690;2022-10-16T07:13:02;0.00;;;0.00;;
6448;SDS011;3257;52.298;13.690;2022-10-16T07:15:28;0.00;;;0.00;;
6448;SDS011;3257;52.298;13.690;2022-10-16T07:17:55;0.00;;;0.00;;
6448;SDS011;3257;52.298;13.690;2022-10-16T07:20:21;0.00;;;0.00;;
6448;SDS011;3257;52.298;13.690;2022-10-16T07:22:48;0.00;;;0.00;;
6448;SDS011;3257;52.298;13.690;2022-10-16T07:25:14;0.00;;;0.00;;
6448;SDS011;3257;52.298;13.690;2022-10-16T07:27:41;0.00;;;0.00;;
6448;SDS011;3257;52.298;13.690;2022-10-16T07:30:07;0.00;;;0.00;;
6448;SDS011;3257;52.298;13.690;2022-10-16T07:32:34;0.00;;;0.00;;
6448;SDS011;3257;52.298;13.690;2022-10-16T07:35:01;0.00;;;0.00;;
6448;SDS011;3257;52.298;13.690;2022-10-16T07:37:27;0.00;;;0.00;;
6448;SDS011;3257;52.298;13.690;2022-10-16T07:39:54;0.00;;;0.00;;
6448;SDS011;3257;52.298;13.690;2022-10-16T07:42:21;0.00;;;0.00;;
6448;SDS011;3257;52.298;13.690;2022-10-16T07:44:47;0.00;;;0.00;;
6448;SDS011;3257;52.298;13.690;2022-10-16T07:47:14;0.00;;;0.00;;
6448;SDS011;3257;52.298;13.690;2022-10-16T07:49:40;0.00;;;0.00;;
6448;SDS011;3257;52.298;13.690;2022-10-16T07:52:07;0.00;;;0.00;;
6448;SDS011;3257;52.298;13.690;2022-10-16T07:54:34;0.00;;;0.00;;
6448;SDS011;3257;52.298;13.690;2022-10-16T07:57:00;0.00;;;0.00;;
6448;SDS011;3257;52.298;13.690;2022-10-16T07:59:27;0.00;;;0.00;;
6448;SDS011;3257;52.298;13.690;2022-10-16T08:01:53;0.00;;;0.00;;
6448;SDS011;3257;52.298;13.690;2022-10-16T08:04:20;0.00;;;0.00;;
6448;SDS011;3257;52.298;13.690;2022-10-16T08:06:46;0.00;;;0.00;;
6448;SDS011;3257;52.298;13.690;2022-10-16T08:09:13;0.00;;;0.00;;
6448;SDS011;3257;52.298;13.690;2022-10-16T08:11:40;0.00;;;0.00;;
6448;SDS011;3257;52.298;13.690;2022-10-16T08:14:07;0.00;;;0.00;;
6448;SDS011;3257;52.298;13.690;2022-10-16T08:16:33;0.00;;;0.00;;
6448;SDS011;3257;52.298;13.690;2022-10-16T08:19:00;0.00;;;0.00;;
6448;SDS011;3257;52.298;13.690;2022-10-16T08:21:26;0.00;;;0.00;;
6448;SDS011;3257;52.298;13.690;2022-10-16T08:23:53;0.00;;;0.00;;
6448;SDS011;3257;52.298;13.690;2022-10-16T08:26:24;0.00;;;0.00;;
6448;SDS011;3257;52.298;13.690;2022-10-16T08:28:50;0.00;;;0.00;;
6448;SDS011;3257;52.298;13.690;2022-10-16T08:31:18;0.00;;;0.00;;
6448;SDS011;3257;52.298;13.690;2022-10-16T08:33:44;0.00;;;0.00;;
6448;SDS011;3257;52.298;13.690;2022-10-16T08:36:13;0.00;;;0.00;;
6448;SDS011;3257;52.298;13.690;2022-10-16T08:38:40;0.00;;;0.00;;
6448;SDS011;3257;52.298;13.690;2022-10-16T08:44:06;0.00;;;0.00;;
6448;SDS011;3257;52.298;13.690;2022-10-16T08:47:30;0.00;;;0.00;;
6448;SDS011;3257;52.298;13.690;2022-10-16T08:49:52;0.00;;;0.00;;
6448;SDS011;3257;52.298;13.690;2022-10-16T08:52:23;0.00;;;0.00;;
6448;SDS011;3257;52.298;13.690;2022-10-16T08:54:55;0.00;;;0.00;;
6448;SDS011;3257;52.298;13.690;2022-10-16T08:57:24;0.00;;;0.00;;
6448;SDS011;3257;52.298;13.690;2022-10-16T08:59:53;0.00;;;0.00;;
6448;SDS011;3257;52.298;13.690;2022-10-16T09:07:47;0.00;;;0.00;;
6448;SDS011;3257;52.298;13.690;2022-10-16T09:15:40;0.00;;;0.00;;
6448;SDS011;3257;52.298;13.690;2022-10-16T09:18:26;0.00;;;0.00;;
6448;SDS011;3257;52.298;13.690;2022-10-16T09:21:00;0.00;;;0.00;;
6448;SDS011;3257;52.298;13.690;2022-10-16T09:23:28;0.00;;;0.00;;
6448;SDS011;3257;52.298;13.690;2022-10-16T09:25:57;0.00;;;0.00;;
6448;SDS011;3257;52.298;13.690;2022-10-16T09:28:24;0.00;;;0.00;;
6448;SDS011;3257;52.298;13.690;2022-10-16T09:30:51;0.00;;;0.00;;
6448;SDS011;3257;52.298;13.690;2022-10-16T09:33:19;0.00;;;0.00;;
6448;SDS011;3257;52.298;13.690;2022-10-16T09:35:50;0.00;;;0.00;;
6448;SDS011;3257;52.298;13.690;2022-10-16T09:38:23;0.00;;;0.00;;
6448;SDS011;3257;52.298;13.690;2022-10-16T09:41:02;0.00;;;0.00;;
6448;SDS011;3257;52.298;13.690;2022-10-16T09:46:28;0.00;;;0.00;;
6448;SDS011;3257;52.298;13.690;2022-10-16T09:48:59;0.00;;;0.00;;
6448;SDS011;3257;52.298;13.690;2022-10-16T09:51:31;0.00;;;0.00;;
6448;SDS011;3257;52.298;13.690;2022-10-16T09:54:23;0.00;;;0.00;;
6448;SDS011;3257;52.298;13.690;2022-10-16T09:56:48;0.00;;;0.00;;
6448;SDS011;3257;52.298;13.690;2022-10-16T09:59:18;0.00;;;0.00;;
6448;SDS011;3257;52.298;13.690;2022-10-16T10:01:55;0.00;;;0.00;;
6448;SDS011;3257;52.298;13.690;2022-10-16T10:04:23;0.00;;;0.00;;
6448;SDS011;3257;52.298;13.690;2022-10-16T10:06:52;0.00;;;0.00;;
6448;SDS011;3257;52.298;13.690;2022-10-16T10:09:39;0.00;;;0.00;;
6448;SDS011;3257;52.298;13.690;2022-10-16T10:12:18;0.00;;;0.00;;
6448;SDS011;3257;52.298;13.690;2022-10-16T10:14:53;0.00;;;0.00;;
6448;SDS011;3257;52.298;13.690;2022-10-16T10:17:27;0.00;;;0.00;;
6448;SDS011;3257;52.298;13.690;2022-10-16T10:23:23;0.00;;;0.00;;
6448;SDS011;3257;52.298;13.690;2022-10-16T10:36:42;0.00;;;0.00;;
6448;SDS011;3257;52.298;13.690;2022-10-16T10:47:59;0.00;;;0.00;;
6448;SDS011;3257;52.298;13.690;2022-10-16T10:50:54;0.00;;;0.00;;
6448;SDS011;3257;52.298;13.690;2022-10-16T10:56:15;0.00;;;0.00;;
6448;SDS011;3257;52.298;13.690;2022-10-16T11:07:26;0.00;;;0.00;;
6448;SDS011;3257;52.298;13.690;2022-10-16T11:10:03;0.00;;;0.00;;
6448;SDS011;3257;52.298;13.690;2022-10-16T11:12:42;0.00;;;0.00;;
6448;SDS011;3257;52.298;13.690;2022-10-16T11:15:27;0.00;;;0.00;;
6448;SDS011;3257;52.298;13.690;2022-10-16T11:18:03;0.00;;;0.00;;
6448;SDS011;3257;52.298;13.690;2022-10-16T11:20:42;0.00;;;0.00;;
6448;SDS011;3257;52.298;13.690;2022-10-16T11:23:25;0.00;;;0.00;;
6448;SDS011;3257;52.298;13.690;2022-10-16T11:26:00;0.00;;;0.00;;
6448;SDS011;3257;52.298;13.690;2022-10-16T11:28:33;0.00;;;0.00;;
6448;SDS011;3257;52.298;13.690;2022-10-16T11:33:44;0.00;;;0.00;;
6448;SDS011;3257;52.298;13.690;2022-10-16T11:38:57;0.00;;;0.00;;
6448;SDS011;3257;52.298;13.690;2022-10-16T11:47:24;0.00;;;0.00;;
6448;SDS011;3257;52.298;13.690;2022-10-16T11:50:26;0.00;;;0.00;;
6448;SDS011;3257;52.298;13.690;2022-10-16T11:53:03;0.00;;;0.00;;
6448;SDS011;3257;52.298;13.690;2022-10-16T11:55:43;0.00;;;0.00;;
6448;SDS011;3257;52.298;13.690;2022-10-16T12:00:53;0.00;;;0.00;;
6448;SDS011;3257;52.298;13.690;2022-10-16T12:03:31;0.00;;;0.00;;
6448;SDS011;3257;52.298;13.690;2022-10-16T12:06:34;0.00;;;0.00;;
6448;SDS011;3257;52.298;13.690;2022-10-16T12:09:09;0.00;;;0.00;;
6448;SDS011;3257;52.298;13.690;2022-10-16T12:11:41;0.00;;;0.00;;
6448;SDS011;3257;52.298;13.690;2022-10-16T12:16:51;0.00;;;0.00;;
6448;SDS011;3257;52.298;13.690;2022-10-16T12:19:18;0.00;;;0.00;;
6448;SDS011;3257;52.298;13.690;2022-10-16T12:21:45;0.00;;;0.00;;
6448;SDS011;3257;52.298;13.690;2022-10-16T12:24:22;0.00;;;0.00;;
6448;SDS011;3257;52.298;13.690;2022-10-16T12:27:04;0.00;;;0.00;;
6448;SDS011;3257;52.298;13.690;2022-10-16T12:29:46;0.00;;;0.00;;
6448;SDS011;3257;52.298;13.690;2022-10-16T12:32:32;0.00;;;0.00;;
6448;SDS011;3257;52.298;13.690;2022-10-16T12:35:17;0.00;;;0.00;;
6448;SDS011;3257;52.298;13.690;2022-10-16T12:37:47;0.00;;;0.00;;
6448;SDS011;3257;52.298;13.690;2022-10-16T12:40:14;0.00;;;0.00;;
6448;SDS011;3257;52.298;13.690;2022-10-16T12:42:49;0.00;;;0.00;;
6448;SDS011;3257;52.298;13.690;2022-10-16T12:45:23;0.00;;;0.00;;
6448;SDS011;3257;52.298;13.690;2022-10-16T12:47:55;0.00;;;0.00;;
6448;SDS011;3257;52.298;13.690;2022-10-16T12:50:33;0.00;;;0.00;;
6448;SDS011;3257;52.298;13.690;2022-10-16T12:53:00;0.00;;;0.00;;
6448;SDS011;3257;52.298;13.690;2022-10-16T12:55:31;0.00;;;0.00;;
6448;SDS011;3257;52.298;13.690;2022-10-16T12:58:24;0.00;;;0.00;;
6448;SDS011;3257;52.298;13.690;2022-10-16T13:01:25;0.00;;;0.00;;
6448;SDS011;3257;52.298;13.690;2022-10-16T13:04:04;0.00;;;0.00;;
6448;SDS011;3257;52.298;13.690;2022-10-16T13:06:45;0.00;;;0.00;;
6448;SDS011;3257;52.298;13.690;2022-10-16T13:09:40;0.00;;;0.00;;
6448;SDS011;3257;52.298;13.690;2022-10-16T13:18:10;0.00;;;0.00;;
6448;SDS011;3257;52.298;13.690;2022-10-16T13:23:27;0.00;;;0.00;;
6448;SDS011;3257;52.298;13.690;2022-10-16T13:28:33;0.00;;;0.00;;
6448;SDS011;3257;52.298;13.690;2022-10-16T13:31:02;0.00;;;0.00;;
6448;SDS011;3257;52.298;13.690;2022-10-16T13:33:32;0.00;;;0.00;;
6448;SDS011;3257;52.298;13.690;2022-10-16T13:36:02;0.00;;;0.00;;
6448;SDS011;3257;52.298;13.690;2022-10-16T13:38:30;0.00;;;0.00;;
6448;SDS011;3257;52.298;13.690;2022-10-16T13:41:00;0.00;;;0.00;;
6448;SDS011;3257;52.298;13.690;2022-10-16T13:46:04;0.00;;;0.00;;
6448;SDS011;3257;52.298;13.690;2022-10-16T13:48:33;0.00;;;0.00;;
6448;SDS011;3257;52.298;13.690;2022-10-16T13:53:43;0.00;;;0.00;;
6448;SDS011;3257;52.298;13.690;2022-10-16T13:56:12;0.00;;;0.00;;
6448;SDS011;3257;52.298;13.690;2022-10-16T13:58:41;0.00;;;0.00;;
6448;SDS011;3257;52.298;13.690;2022-10-16T14:01:18;0.30;;;0.30;;
6448;SDS011;3257;52.298;13.690;2022-10-16T14:04:15;0.40;;;0.40;;
6448;SDS011;3257;52.298;13.690;2022-10-16T14:06:43;0.53;;;0.53;;
6448;SDS011;3257;52.298;13.690;2022-10-16T14:11:49;0.10;;;0.10;;
6448;SDS011;3257;52.298;13.690;2022-10-16T14:14:19;0.10;;;0.10;;
6448;SDS011;3257;52.298;13.690;2022-10-16T14:16:46;0.23;;;0.23;;
6448;SDS011;3257;52.298;13.690;2022-10-16T14:19:24;0.80;;;0.50;;
6448;SDS011;3257;52.298;13.690;2022-10-16T14:21:53;0.20;;;0.20;;
6448;SDS011;3257;52.298;13.690;2022-10-16T14:26:55;14.73;;;13.13;;
6448;SDS011;3257;52.298;13.690;2022-10-16T14:29:23;85.87;;;53.60;;
6448;SDS011;3257;52.298;13.690;2022-10-16T14:31:58;192.83;;;104.97;;
6448;SDS011;3257;52.298;13.690;2022-10-16T14:34:30;97.10;;;86.97;;
6448;SDS011;3257;52.298;13.690;2022-10-16T14:37:22;9.53;;;8.87;;
6448;SDS011;3257;52.298;13.690;2022-10-16T14:39:54;37.87;;;34.40;;
6448;SDS011;3257;52.298;13.690;2022-10-16T14:42:22;110.73;;;79.90;;
6448;SDS011;3257;52.298;13.690;2022-10-16T14:44:51;0.10;;;0.10;;
6448;SDS011;3257;52.298;13.690;2022-10-16T14:47:21;0.00;;;0.00;;
6448;SDS011;3257;52.298;13.690;2022-10-16T14:49:53;0.00;;;0.00;;
6448;SDS011;3257;52.298;13.690;2022-10-16T14:52:22;0.00;;;0.00;;
6448;SDS011;3257;52.298;13.690;2022-10-16T14:54:48;0.00;;;0.00;;
6448;SDS011;3257;52.298;13.690;2022-10-16T14:57:16;0.00;;;0.00;;
6448;SDS011;3257;52.298;13.690;2022-10-16T14:59:48;0.00;;;0.00;;
6448;SDS011;3257;52.298;13.690;2022-10-16T15:04:47;0.00;;;0.00;;
6448;SDS011;3257;52.298;13.690;2022-10-16T15:07:14;0.00;;;0.00;;
6448;SDS011;3257;52.298;13.690;2022-10-16T15:09:41;0.00;;;0.00;;
6448;SDS011;3257;52.298;13.690;2022-10-16T15:12:14;0.00;;;0.00;;
6448;SDS011;3257;52.298;13.690;2022-10-16T15:14:41;0.00;;;0.00;;
6448;SDS011;3257;52.298;13.690;2022-10-16T15:17:11;0.00;;;0.00;;
6448;SDS011;3257;52.298;13.690;2022-10-16T15:19:38;0.00;;;0.00;;
6448;SDS011;3257;52.298;13.690;2022-10-16T15:22:04;0.00;;;0.00;;
6448;SDS011;3257;52.298;13.690;2022-10-16T15:24:31;0.00;;;0.00;;
6448;SDS011;3257;52.298;13.690;2022-10-16T15:26:58;0.00;;;0.00;;
6448;SDS011;3257;52.298;13.690;2022-10-16T15:29:24;0.00;;;0.00;;
6448;SDS011;3257;52.298;13.690;2022-10-16T15:31:51;0.00;;;0.00;;
6448;SDS011;3257;52.298;13.690;2022-10-16T15:34:18;0.00;;;0.00;;
6448;SDS011;3257;52.298;13.690;2022-10-16T15:36:45;0.00;;;0.00;;
6448;SDS011;3257;52.298;13.690;2022-10-16T15:39:14;0.00;;;0.00;;
6448;SDS011;3257;52.298;13.690;2022-10-16T15:41:42;0.00;;;0.00;;
6448;SDS011;3257;52.298;13.690;2022-10-16T15:44:09;0.00;;;0.00;;
6448;SDS011;3257;52.298;13.690;2022-10-16T15:46:36;0.00;;;0.00;;
6448;SDS011;3257;52.298;13.690;2022-10-16T15:49:03;0.00;;;0.00;;
6448;SDS011;3257;52.298;13.690;2022-10-16T15:51:30;0.00;;;0.00;;
6448;SDS011;3257;52.298;13.690;2022-10-16T15:53:59;0.00;;;0.00;;
6448;SDS011;3257;52.298;13.690;2022-10-16T15:56:28;0.00;;;0.00;;
6448;SDS011;3257;52.298;13.690;2022-10-16T15:58:55;0.00;;;0.00;;
6448;SDS011;3257;52.298;13.690;2022-10-16T16:01:21;0.00;;;0.00;;
6448;SDS011;3257;52.298;13.690;2022-10-16T16:03:48;0.00;;;0.00;;
6448;SDS011;3257;52.298;13.690;2022-10-16T16:06:22;0.00;;;0.00;;
6448;SDS011;3257;52.298;13.690;2022-10-16T16:08:56;0.00;;;0.00;;
6448;SDS011;3257;52.298;13.690;2022-10-16T16:11:49;0.00;;;0.00;;
6448;SDS011;3257;52.298;13.690;2022-10-16T16:14:18;0.00;;;0.00;;
6448;SDS011;3257;52.298;13.690;2022-10-16T16:16:47;0.00;;;0.00;;
6448;SDS011;3257;52.298;13.690;2022-10-16T16:19:14;0.00;;;0.00;;
6448;SDS011;3257;52.298;13.690;2022-10-16T16:21:43;0.00;;;0.00;;
6448;SDS011;3257;52.298;13.690;2022-10-16T16:24:09;0.00;;;0.00;;
6448;SDS011;3257;52.298;13.690;2022-10-16T16:26:36;0.00;;;0.00;;
6448;SDS011;3257;52.298;13.690;2022-10-16T16:29:07;0.00;;;0.00;;
6448;SDS011;3257;52.298;13.690;2022-10-16T16:31:39;0.00;;;0.00;;
6448;SDS011;3257;52.298;13.690;2022-10-16T16:34:08;0.00;;;0.00;;
6448;SDS011;3257;52.298;13.690;2022-10-16T16:36:35;0.00;;;0.00;;
6448;SDS011;3257;52.298;13.690;2022-10-16T16:39:01;0.00;;;0.00;;
6448;SDS011;3257;52.298;13.690;2022-10-16T16:41:29;0.00;;;0.00;;
6448;SDS011;3257;52.298;13.690;2022-10-16T16:44:01;0.00;;;0.00;;
6448;SDS011;3257;52.298;13.690;2022-10-16T16:46:32;0.00;;;0.00;;
6448;SDS011;3257;52.298;13.690;2022-10-16T16:49:00;0.00;;;0.00;;
6448;SDS011;3257;52.298;13.690;2022-10-16T16:54:05;0.00;;;0.00;;
6448;SDS011;3257;52.298;13.690;2022-10-16T16:56:33;0.00;;;0.00;;
6448;SDS011;3257;52.298;13.690;2022-10-16T16:59:00;0.00;;;0.00;;
6448;SDS011;3257;52.298;13.690;2022-10-16T17:01:27;0.00;;;0.00;;
6448;SDS011;3257;52.298;13.690;2022-10-16T17:03:55;0.00;;;0.00;;
6448;SDS011;3257;52.298;13.690;2022-10-16T17:06:27;0.00;;;0.00;;
6448;SDS011;3257;52.298;13.690;2022-10-16T17:08:58;0.00;;;0.00;;
6448;SDS011;3257;52.298;13.690;2022-10-16T17:11:26;0.00;;;0.00;;